Terminal Aerodrome Forecast
Issued by NWS

Home | Current Version | Previous Version | Text Only | Print | Product List | Glossary On
Versions: 1 2 3 4 5 6 7 8 9 10 11 12 13 14
358
FTUS45 KRIW 261720
TAFLND
TAF
KLND 261720Z 2618/2718 27006KT P6SM SCT150
     FM270100 23006KT P6SM BKN150=

USA.gov is the U.S. government's official web portal to all federal, state and local government web resources and services.